createdAt,value
2019-05-28T00:00:18.519Z,76.94
2019-05-28T00:02:48.168Z,77.04
2019-05-28T00:05:18.432Z,76.91
2019-05-28T00:07:48.185Z,76.81
2019-05-28T00:10:18.114Z,76.69
2019-05-28T00:12:47.862Z,76.99
2019-05-28T00:15:17.737Z,77.19
2019-05-28T00:17:47.436Z,76.94
2019-05-28T00:20:17.661Z,77.00
2019-05-28T00:22:47.362Z,77.25
2019-05-28T00:25:18.164Z,77.31
2019-05-28T00:27:49.591Z,77.57
2019-05-28T00:30:20.881Z,77.98
2019-05-28T00:32:50.859Z,77.92
2019-05-28T00:35:20.956Z,77.97
2019-05-28T00:37:50.637Z,78.12
2019-05-28T00:40:20.676Z,78.28
2019-05-28T00:42:50.480Z,78.25
2019-05-28T00:45:20.532Z,78.10
2019-05-28T00:47:50.234Z,77.85
2019-05-28T00:50:20.454Z,78.14
2019-05-28T00:52:50.163Z,78.10
2019-05-28T00:55:20.063Z,78.04
2019-05-28T00:57:51.493Z,78.26
2019-05-28T01:00:37.600Z,78.42
2019-05-28T01:03:07.353Z,78.64
2019-05-28T01:05:37.105Z,78.53
2019-05-28T01:08:06.822Z,78.29
2019-05-28T01:10:36.508Z,78.26
2019-05-28T01:13:06.436Z,78.22
2019-05-28T01:15:36.282Z,78.81
2019-05-28T01:18:06.126Z,79.10
2019-05-28T01:20:35.883Z,79.37
2019-05-28T01:23:05.742Z,79.63
2019-05-28T01:25:35.444Z,79.74
2019-05-28T01:28:05.055Z,79.79
2019-05-28T01:30:34.751Z,79.82
2019-05-28T01:33:04.578Z,79.71
2019-05-28T01:35:34.389Z,79.66
2019-05-28T01:38:04.115Z,79.49
2019-05-28T01:40:33.841Z,79.47
2019-05-28T01:43:03.614Z,79.40
2019-05-28T01:45:33.295Z,79.33
2019-05-28T01:48:02.970Z,79.07
2019-05-28T01:50:32.623Z,78.99
2019-05-28T01:53:02.265Z,79.35
2019-05-28T01:55:31.991Z,79.53
2019-05-28T01:58:01.718Z,79.51
2019-05-28T02:00:31.544Z,79.49
2019-05-28T02:03:01.185Z,79.43
2019-05-28T02:05:30.984Z,79.10
2019-05-28T02:08:00.659Z,78.87
2019-05-28T02:10:30.348Z,79.08
2019-05-28T02:13:00.043Z,79.13
2019-05-28T02:15:29.875Z,79.17
2019-05-28T02:17:59.826Z,79.31
2019-05-28T02:20:30.092Z,79.23
2019-05-28T02:22:59.742Z,79.21
2019-05-28T02:25:29.563Z,79.18
2019-05-28T02:27:59.247Z,79.29
2019-05-28T02:30:28.969Z,79.02
2019-05-28T02:32:58.675Z,78.92
2019-05-28T02:35:28.539Z,78.87
2019-05-28T02:37:58.238Z,78.71
2019-05-28T02:40:28.769Z,78.44
2019-05-28T02:42:58.554Z,78.44
2019-05-28T02:45:28.473Z,78.26
2019-05-28T02:47:58.306Z,78.25
2019-05-28T02:50:52.658Z,77.86
2019-05-28T02:53:22.608Z,77.86
2019-05-28T02:55:53.240Z,77.62
2019-05-28T02:58:24.637Z,77.47
2019-05-28T03:00:54.908Z,77.52
2019-05-28T03:03:28.099Z,77.37
2019-05-28T03:05:59.322Z,77.16
2019-05-28T03:08:31.928Z,77.26
2019-05-28T03:11:04.155Z,77.14
2019-05-28T03:13:34.359Z,77.07
2019-05-28T03:16:07.119Z,76.98
2019-05-28T03:18:40.589Z,77.11
2019-05-28T03:21:12.349Z,77.00
2019-05-28T03:23:43.207Z,77.07
2019-05-28T03:26:13.027Z,76.91
2019-05-28T03:28:43.148Z,77.07
2019-05-28T03:31:13.161Z,76.35
2019-05-28T03:33:42.899Z,76.01
2019-05-28T03:36:14.711Z,76.07
2019-05-28T03:38:46.007Z,76.25
2019-05-28T03:41:15.666Z,76.08
2019-05-28T03:43:45.423Z,75.88
2019-05-28T03:46:15.318Z,76.01
2019-05-28T03:48:45.045Z,75.09
2019-05-28T03:51:14.849Z,74.88
2019-05-28T03:53:44.436Z,74.46
2019-05-28T03:56:14.146Z,74.14
2019-05-28T03:58:43.815Z,73.70
2019-05-28T04:01:13.569Z,74.38
2019-05-28T04:03:43.287Z,73.80
2019-05-28T04:06:13.032Z,73.72
2019-05-28T04:08:42.634Z,73.73
2019-05-28T04:11:12.369Z,73.39
2019-05-28T04:13:42.038Z,73.66
2019-05-28T04:16:11.743Z,73.16
2019-05-28T04:18:41.506Z,72.75
2019-05-28T04:21:11.237Z,72.29
2019-05-28T04:23:41.897Z,72.33
2019-05-28T04:26:11.733Z,72.86
2019-05-28T04:28:41.370Z,72.58
2019-05-28T04:31:11.082Z,72.42
2019-05-28T04:33:40.676Z,72.54
2019-05-28T04:36:10.392Z,72.67
2019-05-28T04:38:40.096Z,72.51
2019-05-28T04:41:09.798Z,72.09
2019-05-28T04:43:39.549Z,71.98
2019-05-28T04:46:09.253Z,71.68
2019-05-28T04:48:38.995Z,71.26
2019-05-28T04:51:08.661Z,70.18
2019-05-28T04:53:38.418Z,67.08
2019-05-28T04:56:07.996Z,64.44
2019-05-28T04:58:37.785Z,62.66
2019-05-28T05:01:07.666Z,61.49
2019-05-28T05:03:37.276Z,59.61
2019-05-28T05:06:06.953Z,59.09
2019-05-28T05:08:36.718Z,59.00
2019-05-28T05:11:06.364Z,57.89
2019-05-28T05:13:36.099Z,58.90
2019-05-28T05:16:05.862Z,59.62
2019-05-28T05:18:35.534Z,60.97
2019-05-28T05:21:05.206Z,60.27
2019-05-28T05:23:34.878Z,58.53
2019-05-28T05:26:04.681Z,58.48
2019-05-28T05:28:34.396Z,59.29
2019-05-28T05:31:04.129Z,59.65
2019-05-28T05:33:33.883Z,58.75
2019-05-28T05:36:03.710Z,56.50
2019-05-28T05:38:33.334Z,56.33
2019-05-28T05:41:03.015Z,54.63
2019-05-28T05:43:32.832Z,54.79
2019-05-28T05:46:02.658Z,55.34
2019-05-28T05:48:32.397Z,54.85
2019-05-28T05:51:02.207Z,53.53
2019-05-28T05:53:31.936Z,53.64
2019-05-28T05:56:01.697Z,53.88
2019-05-28T05:58:31.381Z,53.24
2019-05-28T06:01:01.035Z,53.87
2019-05-28T06:03:40.459Z,54.52
2019-05-28T06:06:02.496Z,55.18
2019-05-28T06:08:32.171Z,55.23
2019-05-28T06:11:03.193Z,55.59
2019-05-28T06:13:32.967Z,55.77
2019-05-28T06:16:02.768Z,56.01
2019-05-28T06:18:32.583Z,56.02
2019-05-28T06:21:12.261Z,56.25
2019-05-28T06:23:33.901Z,56.98
2019-05-28T06:26:03.601Z,55.78
2019-05-28T06:28:33.453Z,56.27
2019-05-28T06:31:03.129Z,56.72
2019-05-28T06:33:32.891Z,56.84
2019-05-28T06:36:02.624Z,56.40
2019-05-28T06:38:32.391Z,56.80
2019-05-28T06:41:02.045Z,56.78
2019-05-28T06:43:31.662Z,57.31
2019-05-28T06:46:01.417Z,58.05
2019-05-28T06:48:31.084Z,57.51
2019-05-28T06:51:00.807Z,57.63
2019-05-28T06:53:30.468Z,57.83
2019-05-28T06:56:00.143Z,58.18
2019-05-28T06:58:39.546Z,58.42
2019-05-28T07:01:01.391Z,58.91
2019-05-28T07:03:31.055Z,59.56
2019-05-28T07:06:07.329Z,59.00
2019-05-28T07:08:33.639Z,59.02
2019-05-28T07:11:03.272Z,58.19
2019-05-28T07:13:32.984Z,57.36
2019-05-28T07:16:02.664Z,57.97
2019-05-28T07:18:32.430Z,57.21
2019-05-28T07:21:02.059Z,57.29
2019-05-28T07:23:31.800Z,57.14
2019-05-28T07:26:01.509Z,57.35
2019-05-28T07:28:31.186Z,56.66
2019-05-28T07:31:00.876Z,56.78
2019-05-28T07:33:35.256Z,57.39
2019-05-28T07:36:02.055Z,57.74
2019-05-28T07:38:31.806Z,56.30
2019-05-28T07:41:01.591Z,56.20
2019-05-28T07:43:31.303Z,56.38
2019-05-28T07:46:01.040Z,55.28
2019-05-28T07:48:30.708Z,54.76
2019-05-28T07:51:00.443Z,54.94
2019-05-28T07:53:39.366Z,55.03
2019-05-28T07:56:01.573Z,55.49
2019-05-28T07:58:31.302Z,54.72
2019-05-28T08:01:01.006Z,55.67
2019-05-28T08:03:30.760Z,55.74
2019-05-28T08:06:00.500Z,56.16
2019-05-28T08:08:30.368Z,55.98
2019-05-28T08:11:00.125Z,55.17
2019-05-28T08:13:40.247Z,56.14
2019-05-28T08:16:17.430Z,55.31
2019-05-28T08:18:32.818Z,54.84
2019-05-28T08:21:02.546Z,54.05
2019-05-28T08:23:32.156Z,54.23
2019-05-28T08:26:02.194Z,53.78
2019-05-28T08:28:33.099Z,53.58
2019-05-28T08:31:14.826Z,54.00
2019-05-28T08:33:34.646Z,53.68
2019-05-28T08:36:04.762Z,54.24
2019-05-28T08:38:34.532Z,53.02
2019-05-28T08:41:04.430Z,53.01
2019-05-28T08:43:34.273Z,51.91
2019-05-28T08:46:04.371Z,52.95
2019-05-28T08:48:34.398Z,53.27
2019-05-28T08:51:04.177Z,53.10
2019-05-28T08:53:33.958Z,52.51
2019-05-28T08:56:04.339Z,52.34
2019-05-28T08:58:34.343Z,51.55
2019-05-28T09:01:10.077Z,49.28
2019-05-28T09:03:39.750Z,49.14
2019-05-28T09:06:09.478Z,48.86
2019-05-28T09:08:40.243Z,48.36
2019-05-28T09:11:10.510Z,49.82
2019-05-28T09:13:40.664Z,49.80
2019-05-28T09:16:10.457Z,50.37
2019-05-28T09:18:40.136Z,50.94
2019-05-28T09:21:09.897Z,50.77
2019-05-28T09:23:39.991Z,50.39
2019-05-28T09:26:09.742Z,50.01
2019-05-28T09:28:39.417Z,50.78
2019-05-28T09:31:09.179Z,50.42
2019-05-28T09:33:38.873Z,50.21
2019-05-28T09:36:09.486Z,49.94
2019-05-28T09:38:39.353Z,50.14
2019-05-28T09:41:09.180Z,50.01
2019-05-28T09:43:39.001Z,49.62
2019-05-28T09:46:08.653Z,49.51
2019-05-28T09:48:38.383Z,50.34
2019-05-28T09:51:08.052Z,49.52
2019-05-28T09:53:37.877Z,49.06
2019-05-28T09:56:07.705Z,48.62
2019-05-28T09:58:37.433Z,48.66
2019-05-28T10:01:07.272Z,48.95
2019-05-28T10:03:36.962Z,48.86
2019-05-28T10:06:16.406Z,48.94
2019-05-28T10:08:38.280Z,48.89
2019-05-28T10:11:08.049Z,49.40
2019-05-28T10:13:40.852Z,49.20
2019-05-28T10:16:09.062Z,48.78
2019-05-28T10:18:38.801Z,48.85
2019-05-28T10:21:18.368Z,47.81
2019-05-28T10:23:39.994Z,47.98
2019-05-28T10:26:09.726Z,47.70
2019-05-28T10:28:39.463Z,47.22
2019-05-28T10:31:09.184Z,48.00
2019-05-28T10:33:38.807Z,47.86
2019-05-28T10:36:08.505Z,48.29
2019-05-28T10:38:38.241Z,48.12
2019-05-28T10:41:07.891Z,48.42
2019-05-28T10:43:37.643Z,48.77
2019-05-28T10:46:08.066Z,48.61
2019-05-28T10:48:38.103Z,48.60
2019-05-28T10:51:07.878Z,48.07
2019-05-28T10:53:37.599Z,47.50
2019-05-28T10:56:07.278Z,47.31
2019-05-28T10:58:37.351Z,47.60
2019-05-28T11:01:07.091Z,47.39
2019-05-28T11:03:36.767Z,46.55
2019-05-28T11:06:06.622Z,46.87
2019-05-28T11:08:36.350Z,47.11
2019-05-28T11:11:06.012Z,46.92
2019-05-28T11:13:49.960Z,47.50
2019-05-28T11:16:07.149Z,47.11
2019-05-28T11:18:36.867Z,46.58
2019-05-28T11:21:09.824Z,46.63
2019-05-28T11:23:38.082Z,46.88
2019-05-28T11:26:07.765Z,46.92
2019-05-28T11:28:37.561Z,46.92
2019-05-28T11:31:07.361Z,46.76
2019-05-28T11:33:37.014Z,47.12
2019-05-28T11:36:06.860Z,46.77
2019-05-28T11:38:36.498Z,46.99
2019-05-28T11:41:06.328Z,46.97
2019-05-28T11:43:36.185Z,47.25
2019-05-28T11:46:05.981Z,47.00
2019-05-28T11:48:35.673Z,47.10
2019-05-28T11:51:05.464Z,45.57
2019-05-28T11:53:37.035Z,45.51
2019-05-28T11:56:06.542Z,45.28
2019-05-28T11:58:36.271Z,44.34
2019-05-28T12:01:06.159Z,44.69
2019-05-28T12:03:35.838Z,44.88
2019-05-28T12:06:05.784Z,45.09
2019-05-28T12:08:35.414Z,45.04
2019-05-28T12:11:05.018Z,45.23
2019-05-28T12:13:34.761Z,45.18
2019-05-28T12:16:04.969Z,44.78
2019-05-28T12:18:34.722Z,44.54
2019-05-28T12:21:05.146Z,44.66
2019-05-28T12:23:34.796Z,44.34
2019-05-28T12:26:04.556Z,43.15
2019-05-28T12:28:38.040Z,43.66
2019-05-28T12:31:05.580Z,44.26
2019-05-28T12:33:35.260Z,42.46
2019-05-28T12:36:04.982Z,41.87
2019-05-28T12:38:34.716Z,42.21
2019-05-28T12:41:04.342Z,42.53
2019-05-28T12:43:34.119Z,41.42
2019-05-28T12:46:03.944Z,41.61
2019-05-28T12:48:33.634Z,41.36
2019-05-28T12:51:05.751Z,41.10
2019-05-28T12:53:49.253Z,41.43
2019-05-28T12:56:07.021Z,42.02
2019-05-28T12:58:42.420Z,42.48
2019-05-28T13:01:08.345Z,41.76
2019-05-28T13:03:38.041Z,41.61
2019-05-28T13:06:07.705Z,42.69
2019-05-28T13:08:37.387Z,42.15
2019-05-28T13:11:07.107Z,41.30
2019-05-28T13:13:36.813Z,41.41
2019-05-28T13:16:06.563Z,41.66
2019-05-28T13:18:36.250Z,41.60
2019-05-28T13:21:06.169Z,41.61
2019-05-28T13:23:35.802Z,40.73
2019-05-28T13:26:05.466Z,40.75
2019-05-28T13:28:35.211Z,40.60
2019-05-28T13:31:04.987Z,41.33
2019-05-28T13:33:34.756Z,40.74
2019-05-28T13:36:04.555Z,31.80
2019-05-28T13:38:34.211Z,29.11
2019-05-28T13:41:04.081Z,28.47
2019-05-28T13:43:33.781Z,27.16
2019-05-28T13:46:03.498Z,27.82
2019-05-28T13:48:33.187Z,31.64
2019-05-28T13:51:02.894Z,34.44
2019-05-28T13:53:32.639Z,36.11
2019-05-28T13:56:02.362Z,30.16
2019-05-28T13:58:32.041Z,26.28
2019-05-28T14:01:02.077Z,27.01
2019-05-28T14:03:32.084Z,26.25
2019-05-28T14:06:01.763Z,26.72
2019-05-28T14:08:45.634Z,26.16
2019-05-28T14:11:02.957Z,26.22
2019-05-28T14:13:32.630Z,26.39
2019-05-28T14:16:04.075Z,25.97
2019-05-28T14:18:33.843Z,26.19
2019-05-28T14:21:03.522Z,26.53
2019-05-28T14:23:33.202Z,26.94
2019-05-28T14:26:03.098Z,27.64
2019-05-28T14:28:32.774Z,28.19
2019-05-28T14:31:02.433Z,28.50
2019-05-28T14:33:32.195Z,28.61
2019-05-28T14:36:01.914Z,28.26
2019-05-28T14:38:31.613Z,28.41
2019-05-28T14:41:01.520Z,28.04
2019-05-28T14:43:31.298Z,28.61
2019-05-28T14:46:01.019Z,28.85
2019-05-28T14:48:30.678Z,28.74
2019-05-28T14:51:00.419Z,29.18
2019-05-28T14:53:30.121Z,28.16
2019-05-28T14:55:59.781Z,27.93
2019-05-28T14:58:29.912Z,28.44
2019-05-28T15:00:59.617Z,29.13
2019-05-28T15:03:29.290Z,29.26
2019-05-28T15:05:58.974Z,28.71
2019-05-28T15:08:28.670Z,29.31
2019-05-28T15:10:58.422Z,28.96
2019-05-28T15:13:28.232Z,28.21
2019-05-28T15:15:58.006Z,28.83
2019-05-28T15:18:27.677Z,28.41
2019-05-28T15:20:57.361Z,28.70
2019-05-28T15:23:27.086Z,28.73
2019-05-28T15:25:56.784Z,29.00
2019-05-28T15:28:26.484Z,28.99
2019-05-28T15:30:56.193Z,29.49
2019-05-28T15:33:25.914Z,29.87
2019-05-28T15:35:56.396Z,29.51
2019-05-28T15:38:26.160Z,28.54
2019-05-28T15:40:55.871Z,29.04
2019-05-28T15:43:25.558Z,28.95
2019-05-28T15:45:55.276Z,29.42
2019-05-28T15:48:24.974Z,29.34
2019-05-28T15:50:54.704Z,29.91
2019-05-28T15:53:24.377Z,30.10
2019-05-28T15:55:54.070Z,30.33
2019-05-28T15:58:23.738Z,30.21
2019-05-28T16:00:53.409Z,30.71
2019-05-28T16:03:23.100Z,30.54
2019-05-28T16:05:52.768Z,31.01
2019-05-28T16:08:22.745Z,31.24
2019-05-28T16:10:52.535Z,31.10
2019-05-28T16:13:22.163Z,31.34
2019-05-28T16:15:51.875Z,31.71
2019-05-28T16:18:21.554Z,32.37
2019-05-28T16:20:51.229Z,32.33
2019-05-28T16:23:20.936Z,32.33
2019-05-28T16:25:50.683Z,32.52
2019-05-28T16:28:20.355Z,32.74
2019-05-28T16:30:50.070Z,32.81
2019-05-28T16:33:19.768Z,33.18
2019-05-28T16:35:49.917Z,33.40
2019-05-28T16:38:19.653Z,33.45
2019-05-28T16:40:49.353Z,33.55
2019-05-28T16:43:19.027Z,34.01
2019-05-28T16:45:48.770Z,34.58
2019-05-28T16:48:18.485Z,33.91
2019-05-28T16:50:48.230Z,33.71
2019-05-28T16:53:17.946Z,34.32
2019-05-28T16:55:47.686Z,34.37
2019-05-28T16:58:17.412Z,34.59
2019-05-28T17:00:47.322Z,34.99
2019-05-28T17:03:16.949Z,35.32
2019-05-28T17:05:46.483Z,35.53
2019-05-28T17:08:15.938Z,35.61
2019-05-28T17:10:45.464Z,36.56
2019-05-28T17:13:15.026Z,36.19
2019-05-28T17:15:44.505Z,35.96
2019-05-28T17:18:14.032Z,36.27
2019-05-28T17:20:43.526Z,36.46
2019-05-28T17:23:12.972Z,36.44
2019-05-28T17:25:42.459Z,36.87
2019-05-28T17:28:11.982Z,37.23
2019-05-28T17:30:41.431Z,37.74
2019-05-28T17:33:11.038Z,38.28
2019-05-28T17:35:40.559Z,38.41
2019-05-28T17:38:10.067Z,38.40
2019-05-28T17:40:48.565Z,38.68
2019-05-28T17:43:10.800Z,38.76
2019-05-28T17:45:40.342Z,38.86
2019-05-28T17:48:10.070Z,39.29
2019-05-28T17:50:39.634Z,39.59
2019-05-28T17:53:09.130Z,39.95
2019-05-28T17:55:38.596Z,40.22
2019-05-28T17:58:08.165Z,40.21
2019-05-28T18:00:37.619Z,40.34
2019-05-28T18:03:07.178Z,40.53
2019-05-28T18:05:36.729Z,40.89
2019-05-28T18:08:06.213Z,41.02
2019-05-28T18:10:35.679Z,41.30
2019-05-28T18:13:05.197Z,41.24
2019-05-28T18:15:34.712Z,41.08
2019-05-28T18:18:04.215Z,40.22
2019-05-28T18:20:33.773Z,40.33
2019-05-28T18:23:03.268Z,39.83
2019-05-28T18:25:32.837Z,39.54
2019-05-28T18:28:02.402Z,39.67
2019-05-28T18:30:31.998Z,39.10
2019-05-28T18:33:01.541Z,38.75
2019-05-28T18:35:31.514Z,38.81
2019-05-28T18:38:04.160Z,38.68
2019-05-28T18:40:32.323Z,38.62
2019-05-28T18:43:01.826Z,38.68
2019-05-28T18:45:31.390Z,38.21
2019-05-28T18:48:00.892Z,38.01
2019-05-28T18:50:30.360Z,37.30
2019-05-28T18:52:59.856Z,37.49
2019-05-28T18:55:29.321Z,37.21
2019-05-28T18:57:58.867Z,36.78
2019-05-28T19:00:28.375Z,36.70
2019-05-28T19:02:57.874Z,36.69
2019-05-28T19:05:27.373Z,37.03
2019-05-28T19:07:56.927Z,37.53
2019-05-28T19:10:26.390Z,38.17
2019-05-28T19:12:58.202Z,38.38
2019-05-28T19:15:27.900Z,38.63
2019-05-28T19:17:57.428Z,38.84
2019-05-28T19:20:26.893Z,38.73
2019-05-28T19:22:56.451Z,39.06
2019-05-28T19:25:25.911Z,42.31
2019-05-28T19:27:55.428Z,44.04
2019-05-28T19:30:34.971Z,45.33
2019-05-28T19:33:06.732Z,46.22
2019-05-28T19:35:36.235Z,46.93
2019-05-28T19:38:05.755Z,47.54
2019-05-28T19:40:37.264Z,48.04
2019-05-28T19:43:07.022Z,48.63
2019-05-28T19:45:37.537Z,49.19
2019-05-28T19:48:07.616Z,49.71
2019-05-28T19:50:37.334Z,50.37
2019-05-28T19:53:06.892Z,50.88
2019-05-28T19:55:36.331Z,51.50
2019-05-28T19:58:06.046Z,52.30
2019-05-28T20:00:35.552Z,53.08
2019-05-28T20:03:04.996Z,53.70
2019-05-28T20:05:34.470Z,54.12
2019-05-28T20:08:04.143Z,54.53
2019-05-28T20:10:35.715Z,54.96
2019-05-28T20:13:05.234Z,55.31
2019-05-28T20:15:34.672Z,55.65
2019-05-28T20:18:04.249Z,56.07
2019-05-28T20:20:33.733Z,56.34
2019-05-28T20:23:03.308Z,56.68
2019-05-28T20:25:32.747Z,56.94
2019-05-28T20:28:02.249Z,57.02
2019-05-28T20:30:31.737Z,57.35
2019-05-28T20:33:01.366Z,57.55
2019-05-28T20:35:31.242Z,57.75
2019-05-28T20:38:05.791Z,57.94
2019-05-28T20:40:32.055Z,57.96
2019-05-28T20:43:02.077Z,58.01
2019-05-28T20:45:31.647Z,58.01
2019-05-28T20:48:02.434Z,58.03
2019-05-28T20:50:32.083Z,58.25
2019-05-28T20:53:01.574Z,58.39
2019-05-28T20:55:31.100Z,58.30
2019-05-28T20:58:00.614Z,58.20
2019-05-28T21:00:30.117Z,58.30
2019-05-28T21:02:59.576Z,58.59
2019-05-28T21:05:29.092Z,58.67
2019-05-28T21:07:58.572Z,58.61
2019-05-28T21:10:31.248Z,58.71
2019-05-28T21:13:00.982Z,58.84
2019-05-28T21:15:30.523Z,58.93
2019-05-28T21:17:59.996Z,59.16
2019-05-28T21:20:29.573Z,59.50
2019-05-28T21:23:00.272Z,59.53
2019-05-28T21:25:29.968Z,59.56
2019-05-28T21:28:00.589Z,59.68
2019-05-28T21:30:30.114Z,59.93
2019-05-28T21:33:00.801Z,60.17
2019-05-28T21:35:30.496Z,60.28
2019-05-28T21:37:59.982Z,60.83
2019-05-28T21:40:29.458Z,60.66
2019-05-28T21:43:06.146Z,60.42
2019-05-28T21:45:30.152Z,60.44
2019-05-28T21:48:00.728Z,60.77
2019-05-28T21:50:30.237Z,61.07
2019-05-28T21:53:01.047Z,61.06
2019-05-28T21:55:30.729Z,61.42
2019-05-28T21:58:00.251Z,61.06
2019-05-28T22:00:48.629Z,61.00
2019-05-28T22:03:18.135Z,60.98
2019-05-28T22:05:47.621Z,60.71
2019-05-28T22:08:17.123Z,60.58
2019-05-28T22:10:46.608Z,60.54
2019-05-28T22:13:21.909Z,60.45
2019-05-28T22:15:47.364Z,60.20
2019-05-28T22:18:16.830Z,60.12
2019-05-28T22:20:46.377Z,59.97
2019-05-28T22:23:15.865Z,59.95
2019-05-28T22:25:45.349Z,60.16
2019-05-28T22:28:14.792Z,60.33
2019-05-28T22:30:44.360Z,60.38
2019-05-28T22:33:13.877Z,60.49
2019-05-28T22:35:43.451Z,60.85
2019-05-28T22:38:13.033Z,61.12
2019-05-28T22:40:42.621Z,61.03
2019-05-28T22:43:12.108Z,61.17
2019-05-28T22:45:43.127Z,61.16
2019-05-28T22:48:16.481Z,61.44
2019-05-28T22:50:44.512Z,61.81
2019-05-28T22:53:14.026Z,62.01
2019-05-28T22:55:43.501Z,62.31
2019-05-28T22:58:13.016Z,62.39
2019-05-28T23:00:42.494Z,62.41
2019-05-28T23:03:12.012Z,61.99
2019-05-28T23:05:41.443Z,62.01
2019-05-28T23:08:10.909Z,61.93
2019-05-28T23:10:40.377Z,62.17
2019-05-28T23:13:09.843Z,62.49
2019-05-28T23:15:39.618Z,62.79
2019-05-28T23:18:09.428Z,63.00
2019-05-28T23:20:40.169Z,63.16
2019-05-28T23:23:09.681Z,63.33
2019-05-28T23:25:39.184Z,63.48
2019-05-28T23:28:09.707Z,63.40
2019-05-28T23:30:39.359Z,63.46
2019-05-28T23:33:10.508Z,63.40
2019-05-28T23:35:40.144Z,63.56
2019-05-28T23:38:09.653Z,63.62
2019-05-28T23:40:39.150Z,63.62
2019-05-28T23:43:09.497Z,63.63
2019-05-28T23:45:39.038Z,63.65
2019-05-28T23:48:13.411Z,63.67
2019-05-28T23:50:39.758Z,63.59
2019-05-28T23:53:09.666Z,63.51
2019-05-28T23:55:39.313Z,63.59
2019-05-28T23:58:09.867Z,63.66
